sensor_id;sensor_type;location;lat;lon;timestamp;P1;durP1;ratioP1;P2;durP2;ratioP2
11171;SDS011;5642;50.830;12.082;2023-04-01T00:01:06;0.65;;;0.50;;
11171;SDS011;5642;50.830;12.082;2023-04-01T00:03:33;0.50;;;0.50;;
11171;SDS011;5642;50.830;12.082;2023-04-01T00:06:02;0.65;;;0.50;;
11171;SDS011;5642;50.830;12.082;2023-04-01T00:08:29;0.40;;;0.40;;
11171;SDS011;5642;50.830;12.082;2023-04-01T00:10:57;0.50;;;0.50;;
11171;SDS011;5642;50.830;12.082;2023-04-01T00:13:25;0.50;;;0.40;;
11171;SDS011;5642;50.830;12.082;2023-04-01T00:15:53;0.52;;;0.52;;
11171;SDS011;5642;50.830;12.082;2023-04-01T00:18:21;0.30;;;0.30;;
11171;SDS011;5642;50.830;12.082;2023-04-01T00:20:51;0.40;;;0.40;;
11171;SDS011;5642;50.830;12.082;2023-04-01T00:23:19;0.40;;;0.40;;
11171;SDS011;5642;50.830;12.082;2023-04-01T00:25:47;0.55;;;0.55;;
11171;SDS011;5642;50.830;12.082;2023-04-01T00:28:16;0.95;;;0.50;;
11171;SDS011;5642;50.830;12.082;2023-04-01T00:30:45;0.75;;;0.60;;
11171;SDS011;5642;50.830;12.082;2023-04-01T00:33:11;0.75;;;0.50;;
11171;SDS011;5642;50.830;12.082;2023-04-01T00:35:40;0.57;;;0.50;;
11171;SDS011;5642;50.830;12.082;2023-04-01T00:38:08;0.85;;;0.55;;
11171;SDS011;5642;50.830;12.082;2023-04-01T00:40:39;0.50;;;0.50;;
11171;SDS011;5642;50.830;12.082;2023-04-01T00:43:19;0.47;;;0.47;;
11171;SDS011;5642;50.830;12.082;2023-04-01T00:45:47;0.50;;;0.45;;
11171;SDS011;5642;50.830;12.082;2023-04-01T00:48:21;1.10;;;1.00;;
11171;SDS011;5642;50.830;12.082;2023-04-01T00:53:40;0.98;;;0.88;;
11171;SDS011;5642;50.830;12.082;2023-04-01T00:56:14;2.03;;;1.10;;
11171;SDS011;5642;50.830;12.082;2023-04-01T00:58:46;0.77;;;0.73;;
11171;SDS011;5642;50.830;12.082;2023-04-01T01:01:39;1.85;;;1.05;;
11171;SDS011;5642;50.830;12.082;2023-04-01T01:04:06;0.80;;;0.80;;
11171;SDS011;5642;50.830;12.082;2023-04-01T01:06:51;0.80;;;0.80;;
11171;SDS011;5642;50.830;12.082;2023-04-01T01:15:38;0.55;;;0.55;;
11171;SDS011;5642;50.830;12.082;2023-04-01T01:27:09;0.90;;;0.70;;
11171;SDS011;5642;50.830;12.082;2023-04-01T01:36:07;1.10;;;0.77;;
11171;SDS011;5642;50.830;12.082;2023-04-01T01:38:38;1.08;;;0.90;;
11171;SDS011;5642;50.830;12.082;2023-04-01T01:41:05;1.02;;;0.80;;
11171;SDS011;5642;50.830;12.082;2023-04-01T01:43:39;1.10;;;0.80;;
11171;SDS011;5642;50.830;12.082;2023-04-01T01:46:09;0.80;;;0.55;;
11171;SDS011;5642;50.830;12.082;2023-04-01T01:48:39;1.80;;;0.82;;
11171;SDS011;5642;50.830;12.082;2023-04-01T01:51:15;0.90;;;0.65;;
11171;SDS011;5642;50.830;12.082;2023-04-01T01:53:43;0.80;;;0.80;;
11171;SDS011;5642;50.830;12.082;2023-04-01T01:56:11;0.70;;;0.70;;
11171;SDS011;5642;50.830;12.082;2023-04-01T01:58:41;0.82;;;0.75;;
11171;SDS011;5642;50.830;12.082;2023-04-01T02:01:12;0.90;;;0.80;;
11171;SDS011;5642;50.830;12.082;2023-04-01T02:03:43;0.70;;;0.70;;
11171;SDS011;5642;50.830;12.082;2023-04-01T02:06:14;0.70;;;0.60;;
11171;SDS011;5642;50.830;12.082;2023-04-01T02:08:56;1.02;;;0.70;;
11171;SDS011;5642;50.830;12.082;2023-04-01T02:11:38;0.70;;;0.70;;
11171;SDS011;5642;50.830;12.082;2023-04-01T02:14:36;0.93;;;0.68;;
11171;SDS011;5642;50.830;12.082;2023-04-01T02:17:12;0.73;;;0.60;;
11171;SDS011;5642;50.830;12.082;2023-04-01T02:22:33;1.05;;;0.70;;
11171;SDS011;5642;50.830;12.082;2023-04-01T02:25:08;0.55;;;0.52;;
11171;SDS011;5642;50.830;12.082;2023-04-01T02:27:40;0.68;;;0.68;;
11171;SDS011;5642;50.830;12.082;2023-04-01T02:30:12;0.50;;;0.50;;
11171;SDS011;5642;50.830;12.082;2023-04-01T02:32:44;0.47;;;0.47;;
11171;SDS011;5642;50.830;12.082;2023-04-01T02:35:13;1.08;;;0.68;;
11171;SDS011;5642;50.830;12.082;2023-04-01T02:37:41;0.50;;;0.50;;
11171;SDS011;5642;50.830;12.082;2023-04-01T02:40:11;0.57;;;0.57;;
11171;SDS011;5642;50.830;12.082;2023-04-01T02:42:41;0.85;;;0.55;;
11171;SDS011;5642;50.830;12.082;2023-04-01T02:45:08;1.00;;;0.57;;
11171;SDS011;5642;50.830;12.082;2023-04-01T02:47:35;0.95;;;0.50;;
11171;SDS011;5642;50.830;12.082;2023-04-01T02:50:02;0.82;;;0.45;;
11171;SDS011;5642;50.830;12.082;2023-04-01T02:52:29;0.50;;;0.50;;
11171;SDS011;5642;50.830;12.082;2023-04-01T02:54:56;1.65;;;0.40;;
11171;SDS011;5642;50.830;12.082;2023-04-01T02:57:24;0.50;;;0.50;;
11171;SDS011;5642;50.830;12.082;2023-04-01T02:59:52;0.75;;;0.40;;
11171;SDS011;5642;50.830;12.082;2023-04-01T03:02:24;0.52;;;0.40;;
11171;SDS011;5642;50.830;12.082;2023-04-01T03:04:52;0.50;;;0.40;;
11171;SDS011;5642;50.830;12.082;2023-04-01T03:07:20;0.30;;;0.30;;
11171;SDS011;5642;50.830;12.082;2023-04-01T03:09:47;0.40;;;0.38;;
11171;SDS011;5642;50.830;12.082;2023-04-01T03:12:14;0.90;;;0.63;;
11171;SDS011;5642;50.830;12.082;2023-04-01T03:14:42;0.60;;;0.60;;
11171;SDS011;5642;50.830;12.082;2023-04-01T03:17:09;0.40;;;0.40;;
11171;SDS011;5642;50.830;12.082;2023-04-01T03:19:37;1.05;;;0.60;;
11171;SDS011;5642;50.830;12.082;2023-04-01T03:22:07;0.85;;;0.47;;
11171;SDS011;5642;50.830;12.082;2023-04-01T03:24:37;0.65;;;0.50;;
11171;SDS011;5642;50.830;12.082;2023-04-01T03:27:04;0.40;;;0.40;;
11171;SDS011;5642;50.830;12.082;2023-04-01T03:29:31;0.35;;;0.35;;
11171;SDS011;5642;50.830;12.082;2023-04-01T03:31:59;0.40;;;0.40;;
11171;SDS011;5642;50.830;12.082;2023-04-01T03:34:26;0.52;;;0.50;;
11171;SDS011;5642;50.830;12.082;2023-04-01T03:36:58;0.85;;;0.50;;
11171;SDS011;5642;50.830;12.082;2023-04-01T03:39:25;2.25;;;0.50;;
11171;SDS011;5642;50.830;12.082;2023-04-01T03:41:52;0.68;;;0.50;;
11171;SDS011;5642;50.830;12.082;2023-04-01T03:44:19;0.77;;;0.60;;
11171;SDS011;5642;50.830;12.082;2023-04-01T03:46:54;0.57;;;0.40;;
11171;SDS011;5642;50.830;12.082;2023-04-01T03:49:21;0.85;;;0.50;;
11171;SDS011;5642;50.830;12.082;2023-04-01T03:51:47;0.60;;;0.35;;
11171;SDS011;5642;50.830;12.082;2023-04-01T03:54:15;0.65;;;0.45;;
11171;SDS011;5642;50.830;12.082;2023-04-01T03:56:42;0.35;;;0.35;;
11171;SDS011;5642;50.830;12.082;2023-04-01T03:59:09;1.63;;;0.50;;
11171;SDS011;5642;50.830;12.082;2023-04-01T04:01:37;0.75;;;0.50;;
11171;SDS011;5642;50.830;12.082;2023-04-01T04:04:06;0.98;;;0.60;;
11171;SDS011;5642;50.830;12.082;2023-04-01T04:06:33;0.60;;;0.40;;
11171;SDS011;5642;50.830;12.082;2023-04-01T04:09:00;0.43;;;0.43;;
11171;SDS011;5642;50.830;12.082;2023-04-01T04:11:26;0.77;;;0.40;;
11171;SDS011;5642;50.830;12.082;2023-04-01T04:13:53;0.40;;;0.40;;
11171;SDS011;5642;50.830;12.082;2023-04-01T04:16:23;0.50;;;0.50;;
11171;SDS011;5642;50.830;12.082;2023-04-01T04:18:50;0.70;;;0.25;;
11171;SDS011;5642;50.830;12.082;2023-04-01T04:21:18;0.98;;;0.40;;
11171;SDS011;5642;50.830;12.082;2023-04-01T04:23:45;0.40;;;0.40;;
11171;SDS011;5642;50.830;12.082;2023-04-01T04:26:14;0.45;;;0.40;;
11171;SDS011;5642;50.830;12.082;2023-04-01T04:28:42;1.45;;;0.57;;
11171;SDS011;5642;50.830;12.082;2023-04-01T04:31:08;1.08;;;0.60;;
11171;SDS011;5642;50.830;12.082;2023-04-01T04:33:36;0.70;;;0.50;;
11171;SDS011;5642;50.830;12.082;2023-04-01T04:36:03;0.70;;;0.50;;
11171;SDS011;5642;50.830;12.082;2023-04-01T04:38:31;1.08;;;0.65;;
11171;SDS011;5642;50.830;12.082;2023-04-01T04:40:57;0.57;;;0.50;;
11171;SDS011;5642;50.830;12.082;2023-04-01T04:43:24;0.45;;;0.45;;
11171;SDS011;5642;50.830;12.082;2023-04-01T04:45:52;0.82;;;0.43;;
11171;SDS011;5642;50.830;12.082;2023-04-01T04:48:19;0.57;;;0.38;;
11171;SDS011;5642;50.830;12.082;2023-04-01T04:50:47;0.32;;;0.32;;
11171;SDS011;5642;50.830;12.082;2023-04-01T04:53:17;1.20;;;0.52;;
11171;SDS011;5642;50.830;12.082;2023-04-01T04:55:46;1.15;;;0.40;;
11171;SDS011;5642;50.830;12.082;2023-04-01T04:58:17;1.00;;;0.52;;
11171;SDS011;5642;50.830;12.082;2023-04-01T05:00:49;0.93;;;0.50;;
11171;SDS011;5642;50.830;12.082;2023-04-01T05:03:18;0.57;;;0.45;;
11171;SDS011;5642;50.830;12.082;2023-04-01T05:05:50;0.50;;;0.32;;
11171;SDS011;5642;50.830;12.082;2023-04-01T05:08:23;0.45;;;0.45;;
11171;SDS011;5642;50.830;12.082;2023-04-01T05:10:51;0.30;;;0.30;;
11171;SDS011;5642;50.830;12.082;2023-04-01T05:13:24;0.40;;;0.40;;
11171;SDS011;5642;50.830;12.082;2023-04-01T05:15:51;0.30;;;0.30;;
11171;SDS011;5642;50.830;12.082;2023-04-01T05:18:19;0.52;;;0.40;;
11171;SDS011;5642;50.830;12.082;2023-04-01T05:20:49;0.70;;;0.43;;
11171;SDS011;5642;50.830;12.082;2023-04-01T05:23:16;0.40;;;0.40;;
11171;SDS011;5642;50.830;12.082;2023-04-01T05:27:40;0.57;;;0.40;;
11171;SDS011;5642;50.830;12.082;2023-04-01T05:30:08;0.60;;;0.40;;
11171;SDS011;5642;50.830;12.082;2023-04-01T05:32:35;0.45;;;0.43;;
11171;SDS011;5642;50.830;12.082;2023-04-01T05:35:05;0.50;;;0.40;;
11171;SDS011;5642;50.830;12.082;2023-04-01T05:37:36;0.40;;;0.40;;
11171;SDS011;5642;50.830;12.082;2023-04-01T05:40:04;0.50;;;0.40;;
11171;SDS011;5642;50.830;12.082;2023-04-01T05:42:34;0.63;;;0.60;;
11171;SDS011;5642;50.830;12.082;2023-04-01T05:45:02;0.43;;;0.40;;
11171;SDS011;5642;50.830;12.082;2023-04-01T05:47:31;0.30;;;0.30;;
11171;SDS011;5642;50.830;12.082;2023-04-01T05:49:59;0.43;;;0.40;;
11171;SDS011;5642;50.830;12.082;2023-04-01T05:52:29;0.57;;;0.52;;
11171;SDS011;5642;50.830;12.082;2023-04-01T05:54:58;1.55;;;0.73;;
11171;SDS011;5642;50.830;12.082;2023-04-01T05:57:27;0.70;;;0.45;;
11171;SDS011;5642;50.830;12.082;2023-04-01T05:59:56;1.27;;;0.50;;
11171;SDS011;5642;50.830;12.082;2023-04-01T06:02:24;0.45;;;0.40;;
11171;SDS011;5642;50.830;12.082;2023-04-01T06:04:54;0.40;;;0.40;;
11171;SDS011;5642;50.830;12.082;2023-04-01T06:07:40;0.98;;;0.47;;
11171;SDS011;5642;50.830;12.082;2023-04-01T06:10:17;0.40;;;0.40;;
11171;SDS011;5642;50.830;12.082;2023-04-01T06:12:50;0.50;;;0.50;;
11171;SDS011;5642;50.830;12.082;2023-04-01T06:15:34;0.38;;;0.38;;
11171;SDS011;5642;50.830;12.082;2023-04-01T06:24:03;0.30;;;0.30;;
11171;SDS011;5642;50.830;12.082;2023-04-01T06:47:36;0.50;;;0.50;;
11171;SDS011;5642;50.830;12.082;2023-04-01T06:56:06;0.52;;;0.40;;
11171;SDS011;5642;50.830;12.082;2023-04-01T06:58:49;0.57;;;0.55;;
11171;SDS011;5642;50.830;12.082;2023-04-01T07:01:24;0.70;;;0.60;;
11171;SDS011;5642;50.830;12.082;2023-04-01T07:04:41;0.77;;;0.63;;
11171;SDS011;5642;50.830;12.082;2023-04-01T07:07:03;0.82;;;0.40;;
11171;SDS011;5642;50.830;12.082;2023-04-01T07:09:38;0.45;;;0.45;;
11171;SDS011;5642;50.830;12.082;2023-04-01T07:14:58;0.50;;;0.50;;
11171;SDS011;5642;50.830;12.082;2023-04-01T07:17:37;0.52;;;0.50;;
11171;SDS011;5642;50.830;12.082;2023-04-01T07:20:11;0.68;;;0.45;;
11171;SDS011;5642;50.830;12.082;2023-04-01T07:23:05;0.65;;;0.60;;
11171;SDS011;5642;50.830;12.082;2023-04-01T07:25:46;0.40;;;0.40;;
11171;SDS011;5642;50.830;12.082;2023-04-01T07:28:16;0.47;;;0.47;;
11171;SDS011;5642;50.830;12.082;2023-04-01T07:30:47;0.60;;;0.43;;
11171;SDS011;5642;50.830;12.082;2023-04-01T07:33:25;0.52;;;0.40;;
11171;SDS011;5642;50.830;12.082;2023-04-01T07:36:10;0.43;;;0.43;;
11171;SDS011;5642;50.830;12.082;2023-04-01T07:38:49;0.82;;;0.50;;
11171;SDS011;5642;50.830;12.082;2023-04-01T07:44:25;0.47;;;0.47;;
11171;SDS011;5642;50.830;12.082;2023-04-01T07:47:37;0.50;;;0.50;;
11171;SDS011;5642;50.830;12.082;2023-04-01T07:56:15;0.40;;;0.40;;
11171;SDS011;5642;50.830;12.082;2023-04-01T07:58:49;0.50;;;0.50;;
11171;SDS011;5642;50.830;12.082;2023-04-01T08:07:36;0.28;;;0.28;;
11171;SDS011;5642;50.830;12.082;2023-04-01T08:10:36;0.43;;;0.40;;
11171;SDS011;5642;50.830;12.082;2023-04-01T08:19:09;0.20;;;0.20;;
11171;SDS011;5642;50.830;12.082;2023-04-01T08:22:02;0.40;;;0.40;;
11171;SDS011;5642;50.830;12.082;2023-04-01T08:27:11;0.30;;;0.30;;
11171;SDS011;5642;50.830;12.082;2023-04-01T08:32:30;0.55;;;0.30;;
11171;SDS011;5642;50.830;12.082;2023-04-01T08:35:07;0.25;;;0.25;;
11171;SDS011;5642;50.830;12.082;2023-04-01T08:37:39;0.77;;;0.30;;
11171;SDS011;5642;50.830;12.082;2023-04-01T08:40:16;0.40;;;0.30;;
11171;SDS011;5642;50.830;12.082;2023-04-01T08:42:57;0.30;;;0.30;;
11171;SDS011;5642;50.830;12.082;2023-04-01T08:45:40;0.30;;;0.22;;
11171;SDS011;5642;50.830;12.082;2023-04-01T08:51:12;0.20;;;0.20;;
11171;SDS011;5642;50.830;12.082;2023-04-01T09:00:01;0.30;;;0.30;;
11171;SDS011;5642;50.830;12.082;2023-04-01T09:02:45;0.38;;;0.30;;
11171;SDS011;5642;50.830;12.082;2023-04-01T09:11:31;0.45;;;0.45;;
11171;SDS011;5642;50.830;12.082;2023-04-01T09:19:43;0.30;;;0.30;;
11171;SDS011;5642;50.830;12.082;2023-04-01T09:27:29;0.50;;;0.30;;
11171;SDS011;5642;50.830;12.082;2023-04-01T09:38:22;0.30;;;0.30;;
11171;SDS011;5642;50.830;12.082;2023-04-01T10:06:51;0.30;;;0.30;;
11171;SDS011;5642;50.830;12.082;2023-04-01T10:25:53;0.15;;;0.10;;
11171;SDS011;5642;50.830;12.082;2023-04-01T10:36:52;0.17;;;0.17;;
11171;SDS011;5642;50.830;12.082;2023-04-01T10:42:23;0.20;;;0.20;;
11171;SDS011;5642;50.830;12.082;2023-04-01T10:50:53;0.20;;;0.20;;
11171;SDS011;5642;50.830;12.082;2023-04-01T11:02:34;0.20;;;0.20;;
11171;SDS011;5642;50.830;12.082;2023-04-01T11:14:35;0.20;;;0.20;;
11171;SDS011;5642;50.830;12.082;2023-04-01T11:24:55;0.20;;;0.20;;
11171;SDS011;5642;50.830;12.082;2023-04-01T11:33:28;0.30;;;0.30;;
11171;SDS011;5642;50.830;12.082;2023-04-01T11:39:19;0.25;;;0.25;;
11171;SDS011;5642;50.830;12.082;2023-04-01T11:44:53;0.47;;;0.30;;
11171;SDS011;5642;50.830;12.082;2023-04-01T11:47:52;0.20;;;0.20;;
11171;SDS011;5642;50.830;12.082;2023-04-01T11:50:40;0.20;;;0.20;;
11171;SDS011;5642;50.830;12.082;2023-04-01T12:04:23;0.40;;;0.40;;
11171;SDS011;5642;50.830;12.082;2023-04-01T12:10:36;0.20;;;0.20;;
11171;SDS011;5642;50.830;12.082;2023-04-01T12:13:02;0.30;;;0.30;;
11171;SDS011;5642;50.830;12.082;2023-04-01T12:41:32;0.30;;;0.30;;
11171;SDS011;5642;50.830;12.082;2023-04-01T12:44:34;0.40;;;0.40;;
11171;SDS011;5642;50.830;12.082;2023-04-01T12:52:14;0.50;;;0.40;;
11171;SDS011;5642;50.830;12.082;2023-04-01T13:04:18;0.40;;;0.40;;
11171;SDS011;5642;50.830;12.082;2023-04-01T13:16:05;0.40;;;0.40;;
11171;SDS011;5642;50.830;12.082;2023-04-01T13:24:28;0.60;;;0.60;;
11171;SDS011;5642;50.830;12.082;2023-04-01T13:27:09;0.40;;;0.40;;
11171;SDS011;5642;50.830;12.082;2023-04-01T13:32:56;0.22;;;0.22;;
11171;SDS011;5642;50.830;12.082;2023-04-01T13:44:29;0.30;;;0.30;;
11171;SDS011;5642;50.830;12.082;2023-04-01T13:47:24;0.60;;;0.60;;
11171;SDS011;5642;50.830;12.082;2023-04-01T13:50:39;0.50;;;0.50;;
11171;SDS011;5642;50.830;12.082;2023-04-01T14:01:47;0.30;;;0.30;;
11171;SDS011;5642;50.830;12.082;2023-04-01T14:04:33;0.30;;;0.30;;
11171;SDS011;5642;50.830;12.082;2023-04-01T14:07:31;0.30;;;0.30;;
11171;SDS011;5642;50.830;12.082;2023-04-01T14:21:58;0.20;;;0.20;;
11171;SDS011;5642;50.830;12.082;2023-04-01T14:24:38;0.28;;;0.28;;
11171;SDS011;5642;50.830;12.082;2023-04-01T14:27:55;0.25;;;0.25;;
11171;SDS011;5642;50.830;12.082;2023-04-01T14:33:05;0.30;;;0.30;;
11171;SDS011;5642;50.830;12.082;2023-04-01T14:38:47;0.30;;;0.30;;
11171;SDS011;5642;50.830;12.082;2023-04-01T14:47:25;0.40;;;0.40;;
11171;SDS011;5642;50.830;12.082;2023-04-01T14:50:07;0.35;;;0.35;;
11171;SDS011;5642;50.830;12.082;2023-04-01T14:52:40;0.40;;;0.40;;
11171;SDS011;5642;50.830;12.082;2023-04-01T14:56:12;0.30;;;0.30;;
11171;SDS011;5642;50.830;12.082;2023-04-01T15:01:24;0.40;;;0.40;;
11171;SDS011;5642;50.830;12.082;2023-04-01T15:11:45;0.30;;;0.30;;
11171;SDS011;5642;50.830;12.082;2023-04-01T15:14:19;0.30;;;0.30;;
11171;SDS011;5642;50.830;12.082;2023-04-01T15:17:01;0.43;;;0.43;;
11171;SDS011;5642;50.830;12.082;2023-04-01T15:31:15;0.75;;;0.63;;
11171;SDS011;5642;50.830;12.082;2023-04-01T15:33:54;0.50;;;0.50;;
11171;SDS011;5642;50.830;12.082;2023-04-01T15:36:44;0.47;;;0.47;;
11171;SDS011;5642;50.830;12.082;2023-04-01T15:50:51;0.40;;;0.40;;
11171;SDS011;5642;50.830;12.082;2023-04-01T15:59:13;0.40;;;0.40;;
11171;SDS011;5642;50.830;12.082;2023-04-01T16:01:51;0.32;;;0.32;;
11171;SDS011;5642;50.830;12.082;2023-04-01T16:05:08;0.40;;;0.40;;
11171;SDS011;5642;50.830;12.082;2023-04-01T16:16:14;0.30;;;0.30;;
11171;SDS011;5642;50.830;12.082;2023-04-01T16:19:06;0.30;;;0.30;;
11171;SDS011;5642;50.830;12.082;2023-04-01T16:22:05;0.30;;;0.30;;
11171;SDS011;5642;50.830;12.082;2023-04-01T16:27:25;0.43;;;0.43;;
11171;SDS011;5642;50.830;12.082;2023-04-01T16:32:51;0.60;;;0.60;;
11171;SDS011;5642;50.830;12.082;2023-04-01T16:44:07;0.50;;;0.50;;
11171;SDS011;5642;50.830;12.082;2023-04-01T16:46:53;0.60;;;0.60;;
11171;SDS011;5642;50.830;12.082;2023-04-01T16:49:32;0.35;;;0.35;;
11171;SDS011;5642;50.830;12.082;2023-04-01T17:08:55;0.20;;;0.20;;
11171;SDS011;5642;50.830;12.082;2023-04-01T17:11:26;0.30;;;0.30;;
11171;SDS011;5642;50.830;12.082;2023-04-01T17:14:24;0.30;;;0.30;;
11171;SDS011;5642;50.830;12.082;2023-04-01T17:17:23;0.43;;;0.43;;
11171;SDS011;5642;50.830;12.082;2023-04-01T17:22:58;0.40;;;0.40;;
11171;SDS011;5642;50.830;12.082;2023-04-01T17:28:50;0.60;;;0.60;;
11171;SDS011;5642;50.830;12.082;2023-04-01T17:31:51;0.50;;;0.50;;
11171;SDS011;5642;50.830;12.082;2023-04-01T17:37:06;0.60;;;0.60;;
11171;SDS011;5642;50.830;12.082;2023-04-01T17:42:40;0.47;;;0.47;;
11171;SDS011;5642;50.830;12.082;2023-04-01T17:51:43;0.80;;;0.70;;
11171;SDS011;5642;50.830;12.082;2023-04-01T18:16:15;1.17;;;1.08;;
11171;SDS011;5642;50.830;12.082;2023-04-01T18:24:16;0.80;;;0.80;;
11171;SDS011;5642;50.830;12.082;2023-04-01T18:27:02;0.90;;;0.90;;
11171;SDS011;5642;50.830;12.082;2023-04-01T18:29:36;1.73;;;0.75;;
11171;SDS011;5642;50.830;12.082;2023-04-01T18:37:24;0.55;;;0.55;;
11171;SDS011;5642;50.830;12.082;2023-04-01T18:40:00;0.60;;;0.60;;
11171;SDS011;5642;50.830;12.082;2023-04-01T18:45:37;0.60;;;0.60;;
11171;SDS011;5642;50.830;12.082;2023-04-01T18:48:15;0.80;;;0.80;;
11171;SDS011;5642;50.830;12.082;2023-04-01T18:50:50;1.08;;;1.08;;
11171;SDS011;5642;50.830;12.082;2023-04-01T18:53:23;1.27;;;1.20;;
11171;SDS011;5642;50.830;12.082;2023-04-01T18:56:05;1.20;;;1.10;;
11171;SDS011;5642;50.830;12.082;2023-04-01T18:58:36;1.17;;;1.17;;
11171;SDS011;5642;50.830;12.082;2023-04-01T19:01:16;1.00;;;1.00;;
11171;SDS011;5642;50.830;12.082;2023-04-01T19:06:41;1.70;;;1.60;;
11171;SDS011;5642;50.830;12.082;2023-04-01T19:09:19;2.30;;;2.10;;
11171;SDS011;5642;50.830;12.082;2023-04-01T19:18:02;1.98;;;1.77;;
11171;SDS011;5642;50.830;12.082;2023-04-01T19:20:50;1.95;;;1.70;;
11171;SDS011;5642;50.830;12.082;2023-04-01T19:26:03;1.48;;;1.38;;
11171;SDS011;5642;50.830;12.082;2023-04-01T19:28:36;1.38;;;1.30;;
11171;SDS011;5642;50.830;12.082;2023-04-01T19:50:41;1.65;;;1.40;;
11171;SDS011;5642;50.830;12.082;2023-04-01T19:56:34;0.95;;;0.95;;
11171;SDS011;5642;50.830;12.082;2023-04-01T19:58:45;1.40;;;1.30;;
11171;SDS011;5642;50.830;12.082;2023-04-01T20:01:27;1.42;;;1.33;;
11171;SDS011;5642;50.830;12.082;2023-04-01T20:04:06;1.40;;;1.30;;
11171;SDS011;5642;50.830;12.082;2023-04-01T20:06:47;1.40;;;1.30;;
11171;SDS011;5642;50.830;12.082;2023-04-01T20:15:00;2.28;;;2.08;;
11171;SDS011;5642;50.830;12.082;2023-04-01T20:17:38;2.75;;;1.98;;
11171;SDS011;5642;50.830;12.082;2023-04-01T20:25:12;2.50;;;2.08;;
11171;SDS011;5642;50.830;12.082;2023-04-01T20:28:00;2.50;;;2.30;;
11171;SDS011;5642;50.830;12.082;2023-04-01T20:30:55;2.20;;;2.00;;
11171;SDS011;5642;50.830;12.082;2023-04-01T20:44:21;1.85;;;1.75;;
11171;SDS011;5642;50.830;12.082;2023-04-01T20:47:17;1.60;;;1.50;;
11171;SDS011;5642;50.830;12.082;2023-04-01T20:52:37;1.65;;;1.55;;
11171;SDS011;5642;50.830;12.082;2023-04-01T20:55:23;1.63;;;1.52;;
11171;SDS011;5642;50.830;12.082;2023-04-01T20:58:19;1.70;;;1.45;;
11171;SDS011;5642;50.830;12.082;2023-04-01T21:20:20;0.88;;;0.88;;
11171;SDS011;5642;50.830;12.082;2023-04-01T21:26:04;0.93;;;0.93;;
11171;SDS011;5642;50.830;12.082;2023-04-01T21:55:04;1.45;;;1.35;;
11171;SDS011;5642;50.830;12.082;2023-04-01T22:00:38;1.30;;;1.20;;
11171;SDS011;5642;50.830;12.082;2023-04-01T22:03:19;1.00;;;1.00;;
11171;SDS011;5642;50.830;12.082;2023-04-01T22:06:12;0.98;;;0.98;;
11171;SDS011;5642;50.830;12.082;2023-04-01T22:15:03;1.10;;;1.10;;
11171;SDS011;5642;50.830;12.082;2023-04-01T22:19:59;0.80;;;0.80;;
11171;SDS011;5642;50.830;12.082;2023-04-01T22:25:45;0.80;;;0.80;;
11171;SDS011;5642;50.830;12.082;2023-04-01T22:30:49;0.70;;;0.70;;
11171;SDS011;5642;50.830;12.082;2023-04-01T22:33:34;0.90;;;0.90;;
11171;SDS011;5642;50.830;12.082;2023-04-01T22:39:09;0.68;;;0.68;;
11171;SDS011;5642;50.830;12.082;2023-04-01T22:42:02;0.90;;;0.90;;
11171;SDS011;5642;50.830;12.082;2023-04-01T22:44:38;0.60;;;0.60;;
11171;SDS011;5642;50.830;12.082;2023-04-01T22:47:30;0.70;;;0.70;;
11171;SDS011;5642;50.830;12.082;2023-04-01T22:50:18;0.73;;;0.73;;
11171;SDS011;5642;50.830;12.082;2023-04-01T22:52:47;0.80;;;0.80;;
11171;SDS011;5642;50.830;12.082;2023-04-01T22:55:25;1.00;;;1.00;;
11171;SDS011;5642;50.830;12.082;2023-04-01T22:58:38;0.75;;;0.75;;
11171;SDS011;5642;50.830;12.082;2023-04-01T23:00:54;0.80;;;0.80;;
11171;SDS011;5642;50.830;12.082;2023-04-01T23:03:32;0.75;;;0.75;;
11171;SDS011;5642;50.830;12.082;2023-04-01T23:06:03;0.65;;;0.65;;
11171;SDS011;5642;50.830;12.082;2023-04-01T23:14:41;0.70;;;0.70;;
11171;SDS011;5642;50.830;12.082;2023-04-01T23:26:08;0.80;;;0.80;;
11171;SDS011;5642;50.830;12.082;2023-04-01T23:29:02;0.70;;;0.70;;
11171;SDS011;5642;50.830;12.082;2023-04-01T23:31:34;0.80;;;0.80;;
11171;SDS011;5642;50.830;12.082;2023-04-01T23:36:49;0.80;;;0.80;;
11171;SDS011;5642;50.830;12.082;2023-04-01T23:42:03;0.75;;;0.75;;
11171;SDS011;5642;50.830;12.082;2023-04-01T23:44:37;0.90;;;0.90;;
11171;SDS011;5642;50.830;12.082;2023-04-01T23:47:22;0.80;;;0.80;;
11171;SDS011;5642;50.830;12.082;2023-04-01T23:50:00;0.80;;;0.80;;
11171;SDS011;5642;50.830;12.082;2023-04-01T23:52:39;0.85;;;0.85;;
11171;SDS011;5642;50.830;12.082;2023-04-01T23:55:15;1.00;;;1.00;;
